createdAt,value
2022-09-20T00:01:05.341Z,99862.66
2022-09-20T00:03:32.075Z,99863.44
2022-09-20T00:06:00.733Z,99863.38
2022-09-20T00:08:27.408Z,99867.08
2022-09-20T00:11:02.342Z,99864.41
2022-09-20T00:13:29.335Z,99867.40
2022-09-20T00:15:56.381Z,99865.22
2022-09-20T00:18:23.187Z,99865.45
2022-09-20T00:20:50.328Z,99864.21
2022-09-20T00:23:17.048Z,99862.13
2022-09-20T00:25:43.785Z,99860.63
2022-09-20T00:28:10.765Z,99860.27
2022-09-20T00:30:37.681Z,99859.71
2022-09-20T00:33:04.455Z,99858.23
2022-09-20T00:35:31.202Z,99856.10
2022-09-20T00:37:57.850Z,99856.20
2022-09-20T00:40:24.850Z,99860.54
2022-09-20T00:42:51.525Z,99859.24
2022-09-20T00:45:28.546Z,99857.75
2022-09-20T00:48:15.272Z,99856.82
2022-09-20T00:50:47.365Z,99858.68
2022-09-20T00:53:18.698Z,99862.73
2022-09-20T00:55:51.805Z,99857.75
2022-09-20T00:58:18.954Z,99858.16
2022-09-20T01:00:45.737Z,99856.14
2022-09-20T01:03:13.038Z,99859.36
2022-09-20T01:05:39.653Z,99864.02
2022-09-20T01:08:06.495Z,99862.23
2022-09-20T01:10:33.138Z,99861.40
2022-09-20T01:13:06.422Z,99857.18
2022-09-20T01:15:33.090Z,99858.04
2022-09-20T01:18:00.021Z,99855.64
2022-09-20T01:20:31.990Z,99855.40
2022-09-20T01:23:16.863Z,99855.08
2022-09-20T01:25:46.611Z,99856.71
2022-09-20T01:28:13.335Z,99858.44
2022-09-20T01:30:52.147Z,99860.58
2022-09-20T01:33:33.520Z,99860.66
2022-09-20T01:36:16.850Z,99860.93
2022-09-20T01:38:50.166Z,99858.70
2022-09-20T01:41:34.266Z,99855.53
2022-09-20T01:44:14.196Z,99851.99
2022-09-20T01:46:40.821Z,99847.98
2022-09-20T01:49:27.854Z,99847.38
2022-09-20T01:52:21.883Z,99841.80
2022-09-20T01:55:07.592Z,99840.39
2022-09-20T01:58:11.929Z,99839.95
2022-09-20T02:00:47.170Z,99839.83
2022-09-20T02:03:28.984Z,99843.04
2022-09-20T02:06:13.726Z,99841.49
2022-09-20T02:09:03.387Z,99844.23
2022-09-20T02:11:40.914Z,99848.79
2022-09-20T02:14:29.258Z,99847.46
2022-09-20T02:16:57.361Z,99848.77
2022-09-20T02:23:13.556Z,99845.10
2022-09-20T02:25:46.666Z,99845.37
2022-09-20T02:28:23.286Z,99852.63
2022-09-20T02:31:27.691Z,99854.39
2022-09-20T02:34:00.474Z,99849.84
2022-09-20T02:36:52.652Z,99847.16
2022-09-20T02:39:56.161Z,99844.84
2022-09-20T02:42:31.358Z,99850.58
2022-09-20T02:45:12.754Z,99853.70
2022-09-20T02:47:40.416Z,99856.50
2022-09-20T02:50:29.789Z,99853.32
2022-09-20T02:53:18.981Z,99853.80
2022-09-20T02:55:51.937Z,99852.58
2022-09-20T02:58:40.319Z,99850.48
2022-09-20T03:01:26.282Z,99848.75
2022-09-20T03:03:59.406Z,99846.48
2022-09-20T03:06:40.764Z,99846.34
2022-09-20T03:09:11.397Z,99845.64
2022-09-20T03:11:59.795Z,99853.58
2022-09-20T03:14:29.329Z,99856.19
2022-09-20T03:17:05.142Z,99856.67
2022-09-20T03:20:14.710Z,99862.73
2022-09-20T03:23:06.229Z,99865.31
2022-09-20T03:25:56.139Z,99868.39
2022-09-20T03:28:50.372Z,99865.64
2022-09-20T03:31:16.919Z,99869.52
2022-09-20T03:33:53.524Z,99867.02
2022-09-20T03:37:03.749Z,99869.72
2022-09-20T03:39:39.744Z,99869.17
2022-09-20T03:42:16.117Z,99872.73
2022-09-20T03:44:52.001Z,99872.11
2022-09-20T03:47:37.158Z,99873.69
2022-09-20T03:50:09.764Z,99880.13
2022-09-20T03:52:57.706Z,99881.59
2022-09-20T03:55:49.486Z,99883.35
2022-09-20T03:58:22.452Z,99887.00
2022-09-20T04:00:59.881Z,99887.09
2022-09-20T04:03:31.167Z,99880.41
2022-09-20T04:06:24.043Z,99873.42
2022-09-20T04:08:53.643Z,99874.14
2022-09-20T04:11:38.008Z,99871.27
2022-09-20T04:14:48.128Z,99874.10
2022-09-20T04:17:33.385Z,99877.19
2022-09-20T04:20:13.809Z,99874.48
2022-09-20T04:22:40.588Z,99877.15
2022-09-20T04:25:17.202Z,99882.15
2022-09-20T04:27:47.132Z,99881.91
2022-09-20T04:30:21.442Z,99886.91
2022-09-20T04:33:03.875Z,99890.77
2022-09-20T04:35:58.509Z,99891.10
2022-09-20T04:38:26.421Z,99894.56
2022-09-20T04:41:35.599Z,99895.54
2022-09-20T04:44:27.803Z,99898.69
2022-09-20T04:47:11.238Z,99900.36
2022-09-20T04:49:59.844Z,99900.67
2022-09-20T04:52:39.289Z,99902.01
2022-09-20T04:55:23.900Z,99902.09
2022-09-20T04:58:14.545Z,99904.75
2022-09-20T05:01:19.514Z,99904.67
2022-09-20T05:04:13.028Z,99897.20
2022-09-20T05:07:01.483Z,99896.00
2022-09-20T05:09:46.222Z,99896.41
2022-09-20T05:12:41.005Z,99897.80
2022-09-20T05:15:21.376Z,99897.71
2022-09-20T05:17:57.086Z,99893.71
2022-09-20T05:20:34.220Z,99892.23
2022-09-20T05:23:19.214Z,99888.52
2022-09-20T05:25:55.022Z,99886.35
2022-09-20T05:28:53.420Z,99881.38
2022-09-20T05:31:57.963Z,99882.20
2022-09-20T05:34:35.105Z,99882.84
2022-09-20T05:37:08.103Z,99880.42
2022-09-20T05:39:36.962Z,99882.34
2022-09-20T05:42:15.805Z,99879.89
2022-09-20T05:44:58.222Z,99879.41
2022-09-20T05:47:32.761Z,99885.45
2022-09-20T05:50:18.349Z,99885.70
2022-09-20T05:53:22.604Z,99885.21
2022-09-20T05:55:52.430Z,99887.77
2022-09-20T05:58:45.101Z,99886.57
2022-09-20T06:01:13.664Z,99887.60
2022-09-20T06:03:55.809Z,99884.52
2022-09-20T06:07:15.391Z,99886.42
2022-09-20T06:10:17.066Z,99890.23
2022-09-20T06:12:48.221Z,99891.21
2022-09-20T06:15:34.587Z,99888.71
2022-09-20T06:18:01.276Z,99889.48
2022-09-20T06:20:36.690Z,99888.31
2022-09-20T06:23:04.145Z,99885.33
2022-09-20T06:25:43.056Z,99887.05
2022-09-20T06:28:40.307Z,99886.45
2022-09-20T06:31:09.339Z,99890.02
2022-09-20T06:33:45.024Z,99888.27
2022-09-20T06:36:40.033Z,99886.77
2022-09-20T06:39:53.057Z,99883.55
2022-09-20T06:42:22.470Z,99890.18
2022-09-20T06:44:52.334Z,99887.55
2022-09-20T06:47:19.071Z,99890.52
2022-09-20T06:49:47.752Z,99889.14
2022-09-20T06:52:15.231Z,99887.16
2022-09-20T06:54:45.889Z,99883.44
2022-09-20T06:57:23.142Z,99880.91
2022-09-20T06:59:49.751Z,99881.02
2022-09-20T07:02:49.570Z,99880.51
2022-09-20T07:05:18.044Z,99875.55
2022-09-20T07:07:45.159Z,99870.17
2022-09-20T07:10:12.120Z,99874.73
2022-09-20T07:12:39.406Z,99873.81
2022-09-20T07:15:07.324Z,99872.31
2022-09-20T07:17:34.042Z,99868.08
2022-09-20T07:20:00.763Z,99864.41
2022-09-20T07:22:27.719Z,99859.66
2022-09-20T07:24:54.387Z,99869.39
2022-09-20T07:27:21.515Z,99883.85
2022-09-20T07:29:48.179Z,99886.00
2022-09-20T07:32:15.468Z,99879.27
2022-09-20T07:34:42.115Z,99877.98
2022-09-20T07:37:08.791Z,99877.34
2022-09-20T07:39:35.565Z,99878.13
2022-09-20T07:42:06.190Z,99877.70
2022-09-20T07:44:32.911Z,99874.20
2022-09-20T07:46:59.891Z,99884.19
2022-09-20T07:49:27.733Z,99880.20
2022-09-20T07:51:54.481Z,99883.29
2022-09-20T07:54:21.163Z,99882.86
2022-09-20T07:56:54.883Z,99883.69
2022-09-20T07:59:29.389Z,99887.07
2022-09-20T08:01:57.709Z,99881.75
2022-09-20T08:04:24.419Z,99885.30
2022-09-20T08:06:51.036Z,99881.77
2022-09-20T08:09:17.852Z,99882.39
2022-09-20T08:11:45.395Z,99884.60
2022-09-20T08:14:14.468Z,99886.61
2022-09-20T08:16:43.178Z,99892.90
2022-09-20T08:19:36.982Z,99887.14
2022-09-20T08:22:05.238Z,99892.03
2022-09-20T08:24:32.304Z,99887.60
2022-09-20T08:26:59.236Z,99888.52
2022-09-20T08:29:25.939Z,99889.44
2022-09-20T08:31:53.106Z,99885.69
2022-09-20T08:34:19.792Z,99887.10
2022-09-20T08:36:47.235Z,99886.40
2022-09-20T08:42:18.075Z,99878.97
2022-09-20T08:45:00.098Z,99878.00
2022-09-20T08:47:31.853Z,99879.46
2022-09-20T08:49:59.545Z,99877.89
2022-09-20T08:52:39.958Z,99875.92
2022-09-20T08:55:17.693Z,99872.50
2022-09-20T09:00:48.536Z,99873.52
2022-09-20T09:03:17.209Z,99874.42
2022-09-20T09:05:48.859Z,99875.12
2022-09-20T09:08:21.310Z,99874.85
2022-09-20T09:10:52.606Z,99874.33
2022-09-20T09:13:27.495Z,99875.13
2022-09-20T09:16:03.022Z,99872.55
2022-09-20T09:18:35.848Z,99868.50
2022-09-20T09:21:05.890Z,99868.60
2022-09-20T09:23:39.815Z,99869.15
2022-09-20T09:26:14.466Z,99868.92
2022-09-20T09:28:41.237Z,99870.39
2022-09-20T09:31:25.917Z,99866.92
2022-09-20T09:33:52.814Z,99866.23
2022-09-20T09:36:24.681Z,99862.33
2022-09-20T09:38:51.662Z,99863.66
2022-09-20T09:41:18.297Z,99859.34
2022-09-20T09:43:46.344Z,99858.77
2022-09-20T09:46:25.142Z,99857.25
2022-09-20T09:49:16.912Z,99853.39
2022-09-20T09:51:55.644Z,99853.97
2022-09-20T09:54:22.310Z,99852.59
2022-09-20T09:57:16.049Z,99849.84
2022-09-20T10:00:03.648Z,99845.89
2022-09-20T10:02:51.349Z,99847.91
2022-09-20T10:05:20.198Z,99842.23
2022-09-20T10:07:49.249Z,99840.40
2022-09-20T10:10:24.942Z,99839.49
2022-09-20T10:13:13.401Z,99838.54
2022-09-20T10:15:41.971Z,99838.81
2022-09-20T10:18:12.587Z,99840.33
2022-09-20T10:20:55.762Z,99839.05
2022-09-20T10:24:03.211Z,99839.32
2022-09-20T10:26:49.011Z,99836.01
2022-09-20T10:29:26.345Z,99836.48
2022-09-20T10:32:07.133Z,99836.34
2022-09-20T10:34:55.798Z,99833.73
2022-09-20T10:37:49.171Z,99831.48
2022-09-20T10:40:15.957Z,99833.70
2022-09-20T10:43:05.919Z,99830.69
2022-09-20T10:46:08.415Z,99826.70
2022-09-20T10:48:33.188Z,99820.52
2022-09-20T10:51:04.513Z,99816.50
2022-09-20T10:54:02.723Z,99812.02
2022-09-20T10:56:33.583Z,99810.38
2022-09-20T10:59:48.263Z,99809.16
2022-09-20T11:02:27.176Z,99808.20
2022-09-20T11:05:00.849Z,99803.88
2022-09-20T11:07:54.944Z,99801.90
2022-09-20T11:10:36.213Z,99801.53
2022-09-20T11:13:24.754Z,99797.84
2022-09-20T11:16:16.508Z,99803.53
2022-09-20T11:19:01.089Z,99805.28
2022-09-20T11:21:38.478Z,99809.48
2022-09-20T11:24:05.308Z,99811.27
2022-09-20T11:26:45.030Z,99808.52
2022-09-20T11:29:26.927Z,99804.77
2022-09-20T11:31:54.797Z,99807.27
2022-09-20T11:34:32.880Z,99810.52
2022-09-20T11:37:05.543Z,99807.41
2022-09-20T11:39:46.328Z,99805.45
2022-09-20T11:42:16.208Z,99800.23
2022-09-20T11:44:43.064Z,99802.70
2022-09-20T11:47:54.959Z,99802.64
2022-09-20T11:50:29.335Z,99800.70
2022-09-20T11:53:03.594Z,99793.85
2022-09-20T11:55:39.711Z,99789.84
2022-09-20T11:58:08.422Z,99793.25
2022-09-20T12:00:37.019Z,99795.75
2022-09-20T12:03:05.913Z,99797.76
2022-09-20T12:05:47.206Z,99797.83
2022-09-20T12:08:32.288Z,99798.20
2022-09-20T12:11:07.102Z,99796.52
2022-09-20T12:13:38.933Z,99789.23
2022-09-20T12:16:13.463Z,99785.38
2022-09-20T12:18:53.963Z,99786.46
2022-09-20T12:21:21.129Z,99781.90
2022-09-20T12:23:56.839Z,99779.52
2022-09-20T12:26:26.492Z,99783.48
2022-09-20T12:28:53.776Z,99786.29
2022-09-20T12:31:29.211Z,99787.23
2022-09-20T12:34:02.771Z,99776.76
2022-09-20T12:36:36.209Z,99774.52
2022-09-20T12:39:06.626Z,99766.02
2022-09-20T12:41:56.324Z,99766.12
2022-09-20T12:44:44.227Z,99765.53
2022-09-20T12:47:10.903Z,99760.42
2022-09-20T12:50:05.756Z,99756.46
2022-09-20T12:52:50.917Z,99757.52
2022-09-20T12:55:33.593Z,99752.27
2022-09-20T12:58:03.077Z,99754.77
2022-09-20T13:00:40.894Z,99759.92
2022-09-20T13:03:31.975Z,99756.52
2022-09-20T13:06:13.767Z,99749.58
2022-09-20T13:09:05.143Z,99746.88
2022-09-20T13:11:39.900Z,99746.70
2022-09-20T13:14:18.457Z,99734.21
2022-09-20T13:16:47.604Z,99732.77
2022-09-20T13:19:19.713Z,99736.46
2022-09-20T13:22:27.182Z,99738.10
2022-09-20T13:24:57.577Z,99739.77
2022-09-20T13:27:30.797Z,99742.29
2022-09-20T13:30:24.478Z,99743.30
2022-09-20T13:32:51.737Z,99744.17
2022-09-20T13:35:19.353Z,99742.13
2022-09-20T13:37:53.654Z,99743.22
2022-09-20T13:40:34.693Z,99742.49
2022-09-20T13:43:23.172Z,99738.48
2022-09-20T13:45:56.398Z,99737.74
2022-09-20T13:48:29.992Z,99735.51
2022-09-20T13:50:57.090Z,99736.23
2022-09-20T13:53:40.602Z,99736.84
2022-09-20T13:56:27.533Z,99736.83
2022-09-20T13:58:54.353Z,99739.48
2022-09-20T14:01:31.742Z,99740.38
2022-09-20T14:04:03.843Z,99745.20
2022-09-20T14:06:30.592Z,99739.55
2022-09-20T14:08:58.483Z,99739.91
2022-09-20T14:11:32.210Z,99732.10
2022-09-20T14:14:00.242Z,99727.71
2022-09-20T14:16:34.944Z,99725.23
2022-09-20T14:19:02.180Z,99726.31
2022-09-20T14:21:31.825Z,99723.58
2022-09-20T14:24:06.853Z,99717.45
2022-09-20T14:26:37.313Z,99716.02
2022-09-20T14:29:35.285Z,99714.30
2022-09-20T14:32:34.665Z,99710.09
2022-09-20T14:35:17.987Z,99710.66
2022-09-20T14:37:44.670Z,99711.73
2022-09-20T14:40:24.056Z,99706.09
2022-09-20T14:42:55.896Z,99704.20
2022-09-20T14:45:33.492Z,99711.09
2022-09-20T14:48:08.056Z,99717.25
2022-09-20T14:50:47.044Z,99720.13
2022-09-20T14:53:29.616Z,99717.17
2022-09-20T14:56:07.122Z,99713.45
2022-09-20T14:58:34.194Z,99720.05
2022-09-20T15:01:05.799Z,99724.02
2022-09-20T15:03:34.257Z,99724.84
2022-09-20T15:06:00.926Z,99725.36
2022-09-20T15:08:27.552Z,99724.52
2022-09-20T15:10:54.836Z,99727.11
2022-09-20T15:13:21.747Z,99729.44
2022-09-20T15:15:50.064Z,99732.78
2022-09-20T15:18:20.703Z,99732.89
2022-09-20T15:20:49.474Z,99730.64
2022-09-20T15:23:16.149Z,99726.35
2022-09-20T15:25:43.008Z,99723.81
2022-09-20T15:28:15.457Z,99725.33
2022-09-20T15:30:42.225Z,99729.46
2022-09-20T15:33:10.047Z,99730.86
2022-09-20T15:35:36.707Z,99734.26
2022-09-20T15:38:03.602Z,99733.33
2022-09-20T15:40:30.293Z,99737.38
2022-09-20T15:42:58.217Z,99729.52
2022-09-20T15:45:26.733Z,99728.78
2022-09-20T15:47:55.446Z,99728.47
2022-09-20T15:50:23.433Z,99725.92
2022-09-20T15:52:54.074Z,99725.38
2022-09-20T15:55:23.977Z,99726.26
2022-09-20T15:57:50.633Z,99726.23
2022-09-20T16:00:20.207Z,99727.28
2022-09-20T16:02:50.061Z,99728.63
2022-09-20T16:05:16.810Z,99730.73
2022-09-20T16:07:43.513Z,99734.44
2022-09-20T16:10:10.177Z,99738.92
2022-09-20T16:12:36.810Z,99742.23
2022-09-20T16:15:03.604Z,99744.34
2022-09-20T16:17:49.023Z,99746.75
2022-09-20T16:20:15.675Z,99753.74
2022-09-20T16:22:42.339Z,99753.36
2022-09-20T16:25:09.212Z,99752.87
2022-09-20T16:27:35.844Z,99751.13
2022-09-20T16:30:02.802Z,99748.95
2022-09-20T16:32:29.518Z,99749.56
2022-09-20T16:34:57.946Z,99751.83
2022-09-20T16:37:24.976Z,99746.50
2022-09-20T16:39:51.683Z,99748.61
2022-09-20T16:42:18.597Z,99743.59
2022-09-20T16:44:45.340Z,99743.77
2022-09-20T16:47:21.919Z,99740.42
2022-09-20T16:49:50.339Z,99740.48
2022-09-20T16:52:17.209Z,99741.63
2022-09-20T16:54:43.879Z,99736.55
2022-09-20T16:57:10.579Z,99735.37
2022-09-20T16:59:37.228Z,99732.73
2022-09-20T17:02:03.880Z,99726.23
2022-09-20T17:04:30.652Z,99724.89
2022-09-20T17:06:57.564Z,99727.39
2022-09-20T17:09:24.436Z,99726.49
2022-09-20T17:11:51.423Z,99725.29
2022-09-20T17:14:19.600Z,99722.20
2022-09-20T17:16:47.932Z,99722.45
2022-09-20T17:19:16.653Z,99719.85
2022-09-20T17:21:49.229Z,99725.27
2022-09-20T17:27:17.848Z,99732.64
2022-09-20T17:29:45.510Z,99737.11
2022-09-20T17:32:12.205Z,99738.48
2022-09-20T17:34:39.756Z,99734.30
2022-09-20T17:37:06.515Z,99740.84
2022-09-20T17:39:33.300Z,99739.04
2022-09-20T17:42:01.437Z,99739.63
2022-09-20T17:44:28.169Z,99741.14
2022-09-20T17:46:54.892Z,99746.84
2022-09-20T17:49:22.312Z,99746.70
2022-09-20T17:51:53.763Z,99746.80
2022-09-20T17:54:21.067Z,99745.20
2022-09-20T17:56:49.292Z,99748.23
2022-09-20T17:59:16.555Z,99752.75
2022-09-20T18:01:44.370Z,99756.66
2022-09-20T18:04:11.300Z,99760.52
2022-09-20T18:06:42.733Z,99762.02
2022-09-20T18:09:11.032Z,99763.35
2022-09-20T18:11:49.475Z,99770.03
2022-09-20T18:14:17.850Z,99772.21
2022-09-20T18:16:44.488Z,99772.86
2022-09-20T18:19:11.228Z,99774.17
2022-09-20T18:21:38.491Z,99776.61
2022-09-20T18:24:05.815Z,99776.92
2022-09-20T18:26:32.836Z,99779.77
2022-09-20T18:29:02.064Z,99781.02
2022-09-20T18:31:34.520Z,99782.56
2022-09-20T18:34:01.969Z,99779.52
2022-09-20T18:36:29.705Z,99781.59
2022-09-20T18:38:56.709Z,99782.87
2022-09-20T18:41:28.027Z,99784.79
2022-09-20T18:43:55.247Z,99786.47
2022-09-20T18:46:27.031Z,99787.75
2022-09-20T18:48:54.735Z,99788.46
2022-09-20T18:51:39.155Z,99786.06
2022-09-20T18:54:10.721Z,99785.63
2022-09-20T18:56:41.555Z,99785.40
2022-09-20T18:59:13.389Z,99785.09
2022-09-20T19:01:55.573Z,99787.36
2022-09-20T19:04:49.864Z,99784.35
2022-09-20T19:07:25.790Z,99783.55
2022-09-20T19:10:12.182Z,99779.69
2022-09-20T19:12:44.284Z,99776.96
2022-09-20T19:15:29.711Z,99778.54
2022-09-20T19:18:24.199Z,99776.86
2022-09-20T19:21:03.487Z,99775.55
2022-09-20T19:23:51.003Z,99778.02
2022-09-20T19:26:22.935Z,99781.77
2022-09-20T19:28:51.067Z,99780.34
2022-09-20T19:31:25.089Z,99777.25
2022-09-20T19:33:54.474Z,99777.19
2022-09-20T19:36:22.692Z,99781.21
2022-09-20T19:38:55.502Z,99781.17
2022-09-20T19:41:49.782Z,99781.17
2022-09-20T19:44:35.094Z,99783.37
2022-09-20T19:47:24.122Z,99779.52
2022-09-20T19:50:15.909Z,99779.56
2022-09-20T19:52:43.868Z,99778.94
2022-09-20T19:55:12.557Z,99777.39
2022-09-20T19:57:43.172Z,99776.63
2022-09-20T20:00:19.206Z,99775.02
2022-09-20T20:02:46.182Z,99776.91
2022-09-20T20:05:17.741Z,99780.19
2022-09-20T20:08:09.020Z,99782.47
2022-09-20T20:10:47.645Z,99786.23
2022-09-20T20:14:07.137Z,99787.20
2022-09-20T20:16:50.764Z,99793.45
2022-09-20T20:19:41.727Z,99798.30
2022-09-20T20:22:16.051Z,99800.73
2022-09-20T20:24:52.990Z,99807.63
2022-09-20T20:27:20.803Z,99808.70
2022-09-20T20:29:47.580Z,99807.51
2022-09-20T20:32:15.120Z,99802.23
2022-09-20T20:34:42.038Z,99800.13
2022-09-20T20:37:08.825Z,99787.42
2022-09-20T20:39:35.650Z,99788.77
2022-09-20T20:42:02.886Z,99790.30
2022-09-20T20:44:36.642Z,99784.17
2022-09-20T20:47:04.306Z,99777.67
2022-09-20T20:49:31.174Z,99775.30
2022-09-20T20:51:58.565Z,99779.81
2022-09-20T20:54:25.534Z,99788.98
2022-09-20T20:56:52.213Z,99793.35
2022-09-20T20:59:18.946Z,99790.14
2022-09-20T21:01:45.979Z,99786.73
2022-09-20T21:04:13.028Z,99784.05
2022-09-20T21:06:43.217Z,99773.49
2022-09-20T21:09:10.252Z,99760.23
2022-09-20T21:11:38.691Z,99751.52
2022-09-20T21:14:07.166Z,99754.25
2022-09-20T21:18:57.225Z,99745.46
2022-09-20T21:21:24.736Z,99755.84
2022-09-20T21:23:52.969Z,99754.20
2022-09-20T21:26:20.432Z,99755.11
2022-09-20T21:28:54.569Z,99758.30
2022-09-20T21:31:22.509Z,99761.74
2022-09-20T21:33:49.428Z,99759.21
2022-09-20T21:36:18.148Z,99760.27
2022-09-20T21:38:45.189Z,99752.00
2022-09-20T21:41:24.976Z,99745.08
2022-09-20T21:43:53.270Z,99747.91
2022-09-20T21:46:23.398Z,99754.36
2022-09-20T21:48:53.338Z,99754.27
2022-09-20T21:51:20.585Z,99749.86
2022-09-20T21:53:48.298Z,99750.86
2022-09-20T21:56:18.810Z,99744.06
2022-09-20T21:58:48.483Z,99743.52
2022-09-20T22:01:19.243Z,99741.55
2022-09-20T22:03:50.084Z,99743.20
2022-09-20T22:06:18.387Z,99739.50
2022-09-20T22:08:58.525Z,99740.12
2022-09-20T22:11:27.033Z,99739.08
2022-09-20T22:13:54.650Z,99735.77
2022-09-20T22:16:25.828Z,99737.42
2022-09-20T22:18:52.664Z,99740.36
2022-09-20T22:21:21.508Z,99733.15
2022-09-20T22:23:58.312Z,99736.05
2022-09-20T22:26:26.431Z,99732.23
2022-09-20T22:28:53.199Z,99731.26
2022-09-20T22:31:21.795Z,99731.33
2022-09-20T22:33:50.103Z,99735.27
2022-09-20T22:36:18.640Z,99734.90
2022-09-20T22:38:45.549Z,99737.41
2022-09-20T22:41:13.149Z,99739.35
2022-09-20T22:43:39.843Z,99734.20
2022-09-20T22:46:08.181Z,99735.71
2022-09-20T22:48:35.151Z,99737.02
2022-09-20T22:51:06.137Z,99737.77
2022-09-20T22:53:33.052Z,99743.26
2022-09-20T22:56:06.796Z,99736.81
2022-09-20T22:58:35.408Z,99740.02
2022-09-20T23:01:06.933Z,99736.94
2022-09-20T23:03:33.716Z,99739.64
2022-09-20T23:06:00.500Z,99741.66
2022-09-20T23:08:27.231Z,99740.59
2022-09-20T23:11:03.934Z,99739.96
2022-09-20T23:13:30.843Z,99740.81
2022-09-20T23:15:57.507Z,99741.89
2022-09-20T23:18:24.377Z,99745.73
2022-09-20T23:21:10.766Z,99747.89
2022-09-20T23:23:37.912Z,99749.83
2022-09-20T23:26:09.508Z,99745.08
2022-09-20T23:28:37.103Z,99748.66
2022-09-20T23:31:05.065Z,99741.23
2022-09-20T23:33:32.012Z,99742.95
2022-09-20T23:35:58.851Z,99737.36
2022-09-20T23:38:25.614Z,99734.60
2022-09-20T23:40:52.331Z,99731.13
2022-09-20T23:43:18.939Z,99729.83
2022-09-20T23:45:45.596Z,99729.71
2022-09-20T23:48:12.316Z,99726.27
2022-09-20T23:50:38.965Z,99729.32
2022-09-20T23:53:05.664Z,99730.23
2022-09-20T23:55:32.359Z,99731.34
2022-09-20T23:57:58.993Z,99732.58
